createdAt,value
2022-12-17T00:00:07.054Z,0
2022-12-17T00:02:13.482Z,0
2022-12-17T00:03:17.481Z,0
2022-12-17T00:04:21.622Z,0
2022-12-17T00:05:25.144Z,0
2022-12-17T00:07:30.256Z,0
2022-12-17T00:09:35.802Z,0
2022-12-17T00:10:39.193Z,0
2022-12-17T00:12:44.396Z,0
2022-12-17T00:14:50.127Z,0
2022-12-17T00:16:58.323Z,0
2022-12-17T00:18:00.572Z,0
2022-12-17T00:20:06.257Z,0
2022-12-17T00:22:13.862Z,0
2022-12-17T00:23:17.188Z,0
2022-12-17T00:25:23.018Z,0
2022-12-17T00:27:27.694Z,0
2022-12-17T00:29:33.449Z,0
2022-12-17T00:30:36.152Z,0
2022-12-17T00:32:42.497Z,0
2022-12-17T00:34:48.417Z,0
2022-12-17T00:35:51.807Z,0
2022-12-17T00:36:57.359Z,0
2022-12-17T00:38:00.095Z,0
2022-12-17T00:40:05.301Z,0
2022-12-17T00:41:07.715Z,0
2022-12-17T00:42:11.594Z,0
2022-12-17T00:43:14.579Z,0
2022-12-17T00:45:19.581Z,0
2022-12-17T00:46:22.834Z,0
2022-12-17T00:47:25.653Z,0
2022-12-17T00:48:29.088Z,0
2022-12-17T00:50:34.492Z,0
2022-12-17T00:52:41.553Z,0
2022-12-17T00:53:45.263Z,0
2022-12-17T00:55:51.141Z,0
2022-12-17T00:58:00.356Z,0
2022-12-17T01:00:06.400Z,0
2022-12-17T01:01:09.409Z,0
2022-12-17T01:03:17.968Z,0
2022-12-17T01:05:25.013Z,0
2022-12-17T01:07:30.858Z,0
2022-12-17T01:08:34.879Z,0
2022-12-17T01:10:39.936Z,0
2022-12-17T01:12:45.129Z,0
2022-12-17T01:14:52.233Z,0
2022-12-17T01:15:59.281Z,0
2022-12-17T01:18:04.898Z,0
2022-12-17T01:20:11.034Z,0
2022-12-17T01:22:16.781Z,0
2022-12-17T01:23:20.142Z,0
2022-12-17T01:25:26.120Z,0
2022-12-17T01:27:31.745Z,0
2022-12-17T01:29:37.945Z,0
2022-12-17T01:30:40.929Z,0
2022-12-17T01:32:47.063Z,0
2022-12-17T01:34:52.803Z,0
2022-12-17T01:37:00.766Z,0
2022-12-17T01:38:03.553Z,0
2022-12-17T01:40:11.391Z,0
2022-12-17T01:42:16.094Z,0
2022-12-17T01:43:19.250Z,0
2022-12-17T01:45:24.989Z,0
2022-12-17T01:47:31.330Z,0
2022-12-17T01:48:34.462Z,0
2022-12-17T01:50:39.818Z,0
2022-12-17T01:52:45.642Z,0
2022-12-17T01:54:52.159Z,0
2022-12-17T01:55:55.879Z,0
2022-12-17T01:58:01.741Z,0
2022-12-17T02:00:06.935Z,0
2022-12-17T02:02:15.226Z,0
2022-12-17T02:03:19.438Z,0
2022-12-17T02:05:25.251Z,0
2022-12-17T02:07:31.727Z,0
2022-12-17T02:08:34.042Z,0
2022-12-17T02:10:40.831Z,0
2022-12-17T02:11:44.608Z,0
2022-12-17T02:13:50.753Z,0
2022-12-17T02:15:56.888Z,0
2022-12-17T02:16:59.861Z,0
2022-12-17T02:19:05.964Z,0
2022-12-17T02:21:11.987Z,0
2022-12-17T02:22:15.323Z,0
2022-12-17T02:24:20.790Z,0
2022-12-17T02:25:24.125Z,0
2022-12-17T02:27:31.197Z,0
2022-12-17T02:29:36.909Z,0
2022-12-17T02:30:39.688Z,0
2022-12-17T02:31:42.789Z,0
2022-12-17T02:32:45.955Z,0
2022-12-17T02:34:51.447Z,0
2022-12-17T02:35:53.668Z,0
2022-12-17T02:36:56.720Z,0
2022-12-17T02:37:59.494Z,0
2022-12-17T02:40:05.496Z,0
2022-12-17T02:42:12.720Z,0
2022-12-17T02:43:16.811Z,0
2022-12-17T02:45:22.503Z,0
2022-12-17T02:47:27.798Z,0
2022-12-17T02:49:33.529Z,0
2022-12-17T02:50:36.583Z,0
2022-12-17T02:52:42.534Z,0
2022-12-17T02:54:49.228Z,0
2022-12-17T02:56:54.857Z,0
2022-12-17T02:57:58.665Z,0
2022-12-17T03:00:04.565Z,0
2022-12-17T03:02:12.033Z,0
2022-12-17T03:04:18.442Z,0
2022-12-17T03:05:47.293Z,0
2022-12-17T03:06:50.267Z,0
2022-12-17T03:07:53.688Z,0
2022-12-17T03:09:59.867Z,0
2022-12-17T03:12:07.007Z,0
2022-12-17T03:14:14.206Z,0
2022-12-17T03:15:16.828Z,0
2022-12-17T03:17:22.622Z,0
2022-12-17T03:19:28.388Z,0
2022-12-17T03:21:32.207Z,0
2022-12-17T03:22:35.056Z,0
2022-12-17T03:24:43.544Z,0
2022-12-17T03:26:49.659Z,0
2022-12-17T03:28:57.502Z,0
2022-12-17T03:30:01.594Z,0
2022-12-17T03:32:07.265Z,0
2022-12-17T03:34:12.971Z,0
2022-12-17T03:36:19.115Z,0
2022-12-17T03:37:21.321Z,0
2022-12-17T03:39:26.874Z,0
2022-12-17T03:41:33.515Z,0
2022-12-17T03:43:40.237Z,0
2022-12-17T03:44:43.673Z,0
2022-12-17T03:46:50.300Z,0
2022-12-17T03:48:56.013Z,0
2022-12-17T03:51:01.643Z,0
2022-12-17T03:52:04.698Z,0
2022-12-17T03:54:10.541Z,0
2022-12-17T03:56:16.236Z,0
2022-12-17T03:58:21.535Z,0
2022-12-17T03:59:24.786Z,0
2022-12-17T04:01:33.301Z,0
2022-12-17T04:03:42.443Z,0
2022-12-17T04:05:48.659Z,0
2022-12-17T04:06:52.287Z,0
2022-12-17T04:08:57.830Z,0
2022-12-17T04:11:05.274Z,0
2022-12-17T04:13:11.526Z,0
2022-12-17T04:14:14.495Z,0
2022-12-17T04:16:19.291Z,0
2022-12-17T04:18:26.786Z,0
2022-12-17T04:20:33.445Z,0
2022-12-17T04:21:36.229Z,0
2022-12-17T04:22:39.280Z,0
2022-12-17T04:23:42.039Z,0
2022-12-17T04:25:48.205Z,0
2022-12-17T04:26:51.261Z,0
2022-12-17T04:27:54.143Z,0
2022-12-17T04:28:56.098Z,0
2022-12-17T04:31:01.520Z,0
2022-12-17T04:32:04.778Z,0
2022-12-17T04:33:08.245Z,0
2022-12-17T04:34:10.942Z,0
2022-12-17T04:36:16.763Z,0
2022-12-17T04:37:19.453Z,0
2022-12-17T04:38:22.148Z,0
2022-12-17T04:39:24.576Z,0
2022-12-17T04:41:29.694Z,0
2022-12-17T04:42:32.568Z,0
2022-12-17T04:43:37.597Z,0
2022-12-17T04:44:40.731Z,0
2022-12-17T04:46:46.949Z,0
2022-12-17T04:47:50.043Z,0
2022-12-17T04:49:56.822Z,0
2022-12-17T04:52:02.434Z,0
2022-12-17T04:54:08.685Z,0
2022-12-17T04:55:11.518Z,0
2022-12-17T04:57:16.953Z,0
2022-12-17T04:59:21.913Z,0
2022-12-17T05:00:24.720Z,0
2022-12-17T05:01:28.375Z,0
2022-12-17T05:02:32.934Z,0
2022-12-17T05:04:44.674Z,0
2022-12-17T05:06:50.444Z,0
2022-12-17T05:07:53.578Z,0
2022-12-17T05:09:59.399Z,0
2022-12-17T05:12:05.921Z,0
2022-12-17T05:14:11.548Z,0
2022-12-17T05:15:14.400Z,0
2022-12-17T05:17:19.619Z,0
2022-12-17T05:19:25.576Z,0
2022-12-17T05:20:29.607Z,0
2022-12-17T05:21:35.103Z,0
2022-12-17T05:22:37.530Z,0
2022-12-17T05:24:43.408Z,0
2022-12-17T05:26:48.739Z,0
2022-12-17T05:27:51.776Z,0
2022-12-17T05:28:54.746Z,0
2022-12-17T05:29:57.545Z,0
2022-12-17T05:32:04.069Z,0
2022-12-17T05:33:07.061Z,0
2022-12-17T05:35:14.321Z,0
2022-12-17T05:37:21.600Z,0
2022-12-17T05:39:27.499Z,0
2022-12-17T05:40:30.857Z,0
2022-12-17T05:42:36.363Z,0
2022-12-17T05:44:43.674Z,0
2022-12-17T05:46:49.893Z,0
2022-12-17T05:47:52.333Z,0
2022-12-17T05:49:58.803Z,0
2022-12-17T05:52:06.003Z,0
2022-12-17T05:54:11.935Z,0
2022-12-17T05:55:14.630Z,0
2022-12-17T05:57:20.511Z,0
2022-12-17T05:59:26.757Z,0
2022-12-17T06:00:29.250Z,0
2022-12-17T06:01:32.835Z,0
2022-12-17T06:02:36.242Z,0
2022-12-17T06:04:46.976Z,0
2022-12-17T06:06:55.535Z,0
2022-12-17T06:07:59.296Z,0
2022-12-17T06:10:04.042Z,0
2022-12-17T06:12:10.205Z,0
2022-12-17T06:14:15.755Z,0
2022-12-17T06:15:18.521Z,0
2022-12-17T06:17:26.037Z,0
2022-12-17T06:19:31.869Z,0
2022-12-17T06:21:37.310Z,0
2022-12-17T06:22:40.870Z,0
2022-12-17T06:24:48.130Z,0
2022-12-17T06:26:53.595Z,0
2022-12-17T06:27:56.728Z,0
2022-12-17T06:28:59.503Z,0
2022-12-17T06:30:02.933Z,0
2022-12-17T06:32:09.053Z,0
2022-12-17T06:33:11.752Z,0
2022-12-17T06:35:17.318Z,0
2022-12-17T06:37:28.139Z,0
2022-12-17T06:39:35.290Z,0
2022-12-17T06:40:38.366Z,0
2022-12-17T06:42:44.327Z,0
2022-12-17T06:44:50.072Z,0
2022-12-17T06:46:58.311Z,0
2022-12-17T06:48:01.403Z,0
2022-12-17T06:49:04.468Z,0
2022-12-17T06:50:07.554Z,0
2022-12-17T06:52:13.965Z,0
2022-12-17T06:53:17.119Z,0
2022-12-17T06:54:20.206Z,0
2022-12-17T06:55:23.419Z,0
2022-12-17T06:57:29.257Z,0
2022-12-17T06:58:32.336Z,0
2022-12-17T06:59:35.415Z,0
2022-12-17T07:00:38.500Z,0
2022-12-17T07:02:45.837Z,0
2022-12-17T07:03:48.316Z,0
2022-12-17T07:04:50.574Z,0
2022-12-17T07:05:53.552Z,0
2022-12-17T07:07:59.484Z,0
2022-12-17T07:09:02.180Z,0
2022-12-17T07:10:15.411Z,0
2022-12-17T07:11:18.867Z,1
2022-12-17T07:13:25.888Z,1
2022-12-17T07:15:31.650Z,1
2022-12-17T07:16:35.248Z,1
2022-12-17T07:18:41.121Z,1
2022-12-17T07:20:47.000Z,2
2022-12-17T07:22:52.902Z,2
2022-12-17T07:23:55.959Z,3
2022-12-17T07:26:02.727Z,3
2022-12-17T07:28:09.994Z,4
2022-12-17T07:30:15.199Z,5
2022-12-17T07:31:18.118Z,5
2022-12-17T07:32:21.403Z,6
2022-12-17T07:33:25.039Z,6
2022-12-17T07:35:30.871Z,7
2022-12-17T07:36:33.725Z,7
2022-12-17T07:37:36.419Z,7
2022-12-17T07:38:39.534Z,8
2022-12-17T07:40:45.352Z,8
2022-12-17T07:41:48.793Z,8
2022-12-17T07:42:52.245Z,9
2022-12-17T07:43:55.530Z,9
2022-12-17T07:46:01.669Z,11
2022-12-17T07:47:05.067Z,11
2022-12-17T07:48:08.465Z,12
2022-12-17T07:49:12.670Z,13
2022-12-17T07:51:17.394Z,15
2022-12-17T07:53:23.500Z,16
2022-12-17T07:54:26.934Z,17
2022-12-17T07:56:33.221Z,18
2022-12-17T07:58:40.162Z,19
2022-12-17T08:00:51.609Z,21
2022-12-17T08:01:55.534Z,22
2022-12-17T08:04:02.158Z,24
2022-12-17T08:06:08.470Z,26
2022-12-17T08:08:18.594Z,28
2022-12-17T08:09:21.928Z,29
2022-12-17T08:11:26.990Z,31
2022-12-17T08:13:34.709Z,33
2022-12-17T08:15:41.095Z,36
2022-12-17T08:16:44.408Z,37
2022-12-17T08:18:51.331Z,39
2022-12-17T08:20:56.604Z,41
2022-12-17T08:23:02.792Z,42
2022-12-17T08:24:06.482Z,42
2022-12-17T08:26:13.020Z,42
2022-12-17T08:28:53.188Z,42
2022-12-17T08:31:01.994Z,42
2022-12-17T08:33:07.363Z,44
2022-12-17T08:35:13.393Z,47
2022-12-17T08:36:16.397Z,49
2022-12-17T08:38:21.647Z,51
2022-12-17T08:40:26.991Z,52
2022-12-17T08:42:32.365Z,53
2022-12-17T08:43:38.014Z,54
2022-12-17T08:45:45.538Z,54
2022-12-17T08:47:52.011Z,56
2022-12-17T08:49:56.765Z,57
2022-12-17T08:50:59.736Z,58
2022-12-17T08:53:05.276Z,61
2022-12-17T08:55:11.212Z,64
2022-12-17T08:57:34.232Z,65
2022-12-17T08:59:40.442Z,65
2022-12-17T09:00:43.872Z,65
2022-12-17T09:02:51.933Z,65
2022-12-17T09:04:58.758Z,66
2022-12-17T09:07:03.946Z,74
2022-12-17T09:08:07.326Z,78
2022-12-17T09:10:13.416Z,83
2022-12-17T09:12:19.337Z,88
2022-12-17T09:14:25.600Z,89
2022-12-17T09:15:28.572Z,91
2022-12-17T09:17:35.623Z,93
2022-12-17T09:19:40.470Z,112
2022-12-17T09:20:43.242Z,91
2022-12-17T09:22:48.870Z,93
2022-12-17T09:24:54.376Z,77
2022-12-17T09:27:03.452Z,74
2022-12-17T09:28:07.165Z,70
2022-12-17T09:30:12.542Z,71
2022-12-17T09:32:20.025Z,85
2022-12-17T09:34:26.459Z,69
2022-12-17T09:35:29.157Z,71
2022-12-17T09:37:35.331Z,172
2022-12-17T09:39:41.094Z,454
2022-12-17T09:40:43.239Z,466
2022-12-17T09:41:46.009Z,479
2022-12-17T09:43:01.625Z,477
2022-12-17T09:45:07.448Z,492
2022-12-17T09:46:10.056Z,400
2022-12-17T09:48:16.178Z,186
2022-12-17T09:50:23.119Z,161
2022-12-17T09:51:26.098Z,158
2022-12-17T09:53:31.923Z,151
2022-12-17T09:54:35.358Z,136
2022-12-17T09:55:37.847Z,127
2022-12-17T09:56:40.265Z,121
2022-12-17T09:58:46.116Z,128
2022-12-17T09:59:48.815Z,137
2022-12-17T10:01:01.133Z,145
2022-12-17T10:02:05.011Z,165
2022-12-17T10:04:12.971Z,155
2022-12-17T10:06:24.848Z,136
2022-12-17T10:07:27.905Z,138
2022-12-17T10:08:30.971Z,185
2022-12-17T10:09:34.136Z,262
2022-12-17T10:11:39.560Z,456
2022-12-17T10:12:42.636Z,564
2022-12-17T10:14:47.983Z,581
2022-12-17T10:16:54.201Z,578
2022-12-17T10:19:00.410Z,584
2022-12-17T10:20:04.227Z,581
2022-12-17T10:22:11.037Z,574
2022-12-17T10:24:20.398Z,572
2022-12-17T10:25:22.613Z,572
2022-12-17T10:26:25.028Z,574
2022-12-17T10:27:28.082Z,565
2022-12-17T10:29:33.985Z,577
2022-12-17T10:30:36.487Z,566
2022-12-17T10:32:42.840Z,582
2022-12-17T10:34:48.400Z,581
2022-12-17T10:36:55.613Z,600
2022-12-17T10:37:58.696Z,581
2022-12-17T10:40:04.449Z,596
2022-12-17T10:42:10.408Z,593
2022-12-17T10:43:13.118Z,583
2022-12-17T10:45:18.584Z,584
2022-12-17T10:47:24.849Z,578
2022-12-17T10:48:27.823Z,582
2022-12-17T10:49:30.795Z,577
2022-12-17T10:50:33.503Z,580
2022-12-17T10:52:40.456Z,561
2022-12-17T10:54:51.635Z,548
2022-12-17T10:55:54.961Z,548
2022-12-17T10:56:57.749Z,546
2022-12-17T10:58:00.833Z,550
2022-12-17T11:00:06.604Z,543
2022-12-17T11:01:10.787Z,532
2022-12-17T11:03:18.058Z,564
2022-12-17T11:04:20.618Z,561
2022-12-17T11:05:23.600Z,558
2022-12-17T11:06:26.299Z,573
2022-12-17T11:08:34.317Z,556
2022-12-17T11:09:37.676Z,559
2022-12-17T11:10:40.376Z,571
2022-12-17T11:11:43.629Z,586
2022-12-17T11:12:46.685Z,576
2022-12-17T11:14:52.486Z,594
2022-12-17T11:16:58.333Z,588
2022-12-17T11:18:01.118Z,585
2022-12-17T11:20:06.246Z,579
2022-12-17T11:21:08.948Z,569
2022-12-17T11:23:15.816Z,569
2022-12-17T11:24:24.849Z,560
2022-12-17T11:25:27.811Z,567
2022-12-17T11:27:32.786Z,553
2022-12-17T11:28:36.137Z,552
2022-12-17T11:30:41.239Z,524
2022-12-17T11:32:47.317Z,537
2022-12-17T11:33:50.370Z,553
2022-12-17T11:35:56.318Z,588
2022-12-17T11:38:01.207Z,595
2022-12-17T11:39:04.573Z,593
2022-12-17T11:41:11.027Z,580
2022-12-17T11:42:14.072Z,581
2022-12-17T11:44:19.249Z,576
2022-12-17T11:46:25.622Z,583
2022-12-17T11:47:29.070Z,573
2022-12-17T11:48:32.042Z,572
2022-12-17T11:49:35.017Z,564
2022-12-17T11:50:38.000Z,554
2022-12-17T11:51:40.976Z,556
2022-12-17T11:52:44.311Z,557
2022-12-17T11:53:47.079Z,559
2022-12-17T11:55:54.098Z,569
2022-12-17T11:57:59.306Z,567
2022-12-17T11:59:02.294Z,586
2022-12-17T12:01:08.918Z,572
2022-12-17T12:02:11.969Z,560
2022-12-17T12:04:18.194Z,537
2022-12-17T12:06:23.420Z,506
2022-12-17T12:07:25.562Z,504
2022-12-17T12:09:32.297Z,521
2022-12-17T12:10:35.793Z,533
2022-12-17T12:12:42.705Z,525
2022-12-17T12:14:48.806Z,522
2022-12-17T12:15:52.015Z,508
2022-12-17T12:17:59.247Z,510
2022-12-17T12:20:04.659Z,520
2022-12-17T12:21:07.173Z,521
2022-12-17T12:23:13.953Z,515
2022-12-17T12:24:16.653Z,511
2022-12-17T12:25:19.997Z,508
2022-12-17T12:26:23.200Z,501
2022-12-17T12:27:26.936Z,494
2022-12-17T12:29:32.416Z,477
2022-12-17T12:31:38.813Z,434
2022-12-17T12:32:41.904Z,338
2022-12-17T12:34:47.233Z,174
2022-12-17T12:36:53.809Z,178
2022-12-17T12:37:57.138Z,161
2022-12-17T12:39:01.036Z,150
2022-12-17T12:40:04.467Z,141
2022-12-17T12:42:10.300Z,103
2022-12-17T12:43:13.808Z,121
2022-12-17T12:45:18.796Z,132
2022-12-17T12:47:23.923Z,127
2022-12-17T12:48:27.728Z,114
2022-12-17T12:50:33.888Z,133
2022-12-17T12:52:38.840Z,120
2022-12-17T12:53:42.171Z,123
2022-12-17T12:55:48.291Z,105
2022-12-17T12:57:54.499Z,107
2022-12-17T12:58:58.554Z,103
2022-12-17T13:01:04.899Z,132
2022-12-17T13:02:09.159Z,106
2022-12-17T13:04:16.103Z,96
2022-12-17T13:06:21.955Z,95
2022-12-17T13:07:25.391Z,103
2022-12-17T13:08:28.095Z,88
2022-12-17T13:09:37.342Z,79
2022-12-17T13:10:39.834Z,78
2022-12-17T13:11:43.275Z,77
2022-12-17T13:12:45.864Z,71
2022-12-17T13:14:53.129Z,66
2022-12-17T13:16:59.262Z,61
2022-12-17T13:18:02.039Z,62
2022-12-17T13:20:08.161Z,60
2022-12-17T13:21:11.576Z,59
2022-12-17T13:22:24.757Z,59
2022-12-17T13:23:27.809Z,58
2022-12-17T13:25:33.948Z,57
2022-12-17T13:26:36.648Z,58
2022-12-17T13:27:39.655Z,56
2022-12-17T13:28:43.742Z,53
2022-12-17T13:30:51.154Z,53
2022-12-17T13:31:54.206Z,51
2022-12-17T13:34:01.739Z,50
2022-12-17T13:36:14.527Z,51
2022-12-17T13:37:18.502Z,49
2022-12-17T13:39:24.806Z,48
2022-12-17T13:41:30.689Z,45
2022-12-17T13:42:34.682Z,45
2022-12-17T13:44:41.043Z,43
2022-12-17T13:46:49.887Z,42
2022-12-17T13:47:53.614Z,41
2022-12-17T13:48:57.263Z,41
2022-12-17T13:50:38.237Z,40
2022-12-17T13:52:44.701Z,38
2022-12-17T13:54:50.853Z,37
2022-12-17T13:56:56.888Z,36
2022-12-17T13:58:00.327Z,35
2022-12-17T13:59:11.263Z,34
2022-12-17T14:00:13.959Z,34
2022-12-17T14:01:18.575Z,33
2022-12-17T14:04:09.277Z,32
2022-12-17T14:05:13.604Z,31
2022-12-17T14:06:16.449Z,30
2022-12-17T14:08:22.592Z,29
2022-12-17T14:10:27.874Z,28
2022-12-17T14:11:30.460Z,27
2022-12-17T14:12:32.879Z,26
2022-12-17T14:13:36.598Z,25
2022-12-17T14:15:42.870Z,24
2022-12-17T14:16:53.489Z,23
2022-12-17T14:17:57.277Z,23
2022-12-17T14:19:00.617Z,22
2022-12-17T14:21:06.657Z,21
2022-12-17T14:22:09.754Z,20
2022-12-17T14:24:15.960Z,19
2022-12-17T14:26:21.079Z,18
2022-12-17T14:27:24.405Z,17
2022-12-17T14:29:30.358Z,16
2022-12-17T14:30:33.779Z,16
2022-12-17T14:32:39.892Z,14
2022-12-17T14:34:46.120Z,13
2022-12-17T14:35:48.817Z,13
2022-12-17T14:37:58.732Z,12
2022-12-17T14:40:05.141Z,11
2022-12-17T14:41:08.627Z,10
2022-12-17T14:42:11.687Z,10
2022-12-17T14:43:14.286Z,9
2022-12-17T14:44:23.306Z,9
2022-12-17T14:45:26.082Z,8
2022-12-17T14:46:30.755Z,8
2022-12-17T14:47:33.090Z,7
2022-12-17T14:48:39.455Z,7
2022-12-17T14:50:46.081Z,6
2022-12-17T14:52:52.628Z,5
2022-12-17T14:53:55.405Z,5
2022-12-17T14:56:01.571Z,4
2022-12-17T14:58:07.962Z,3
2022-12-17T14:59:11.023Z,3
2022-12-17T15:01:16.784Z,3
2022-12-17T15:03:25.203Z,2
2022-12-17T15:04:28.670Z,2
2022-12-17T15:06:36.337Z,2
2022-12-17T15:08:43.501Z,1
2022-12-17T15:10:49.232Z,1
2022-12-17T15:11:52.356Z,1
2022-12-17T15:13:59.073Z,0
2022-12-17T15:16:05.208Z,0
2022-12-17T15:18:11.788Z,0
2022-12-17T15:19:15.003Z,0
2022-12-17T15:21:22.623Z,0
2022-12-17T15:23:28.168Z,0
2022-12-17T15:25:35.664Z,0
2022-12-17T15:26:40.264Z,0
2022-12-17T15:28:45.388Z,0
2022-12-17T15:30:53.447Z,0
2022-12-17T15:32:59.951Z,0
2022-12-17T15:34:02.933Z,0
2022-12-17T15:36:08.661Z,0
2022-12-17T15:38:16.656Z,0
2022-12-17T15:40:29.850Z,0
2022-12-17T15:41:33.400Z,0
2022-12-17T15:42:36.457Z,0
2022-12-17T15:43:39.246Z,0
2022-12-17T15:45:45.756Z,0
2022-12-17T15:47:52.006Z,0
2022-12-17T15:48:56.037Z,0
2022-12-17T15:51:03.481Z,0
2022-12-17T15:53:10.925Z,0
2022-12-17T15:55:16.661Z,0
2022-12-17T15:56:19.357Z,0
2022-12-17T15:58:25.256Z,0
2022-12-17T16:00:30.944Z,0
2022-12-17T16:02:39.332Z,0
2022-12-17T16:03:42.645Z,0
2022-12-17T16:05:49.119Z,0
2022-12-17T16:07:55.925Z,0
2022-12-17T16:10:07.776Z,0
2022-12-17T16:11:11.140Z,0
2022-12-17T16:12:14.632Z,0
2022-12-17T16:13:17.324Z,0
2022-12-17T16:15:23.272Z,0
2022-12-17T16:16:27.637Z,0
2022-12-17T16:17:30.722Z,0
2022-12-17T16:18:34.532Z,0
2022-12-17T16:20:41.349Z,0
2022-12-17T16:22:53.083Z,0
2022-12-17T16:23:56.175Z,0
2022-12-17T16:26:03.357Z,0
2022-12-17T16:28:09.815Z,0
2022-12-17T16:30:16.269Z,0
2022-12-17T16:31:20.005Z,0
2022-12-17T16:33:36.662Z,0
2022-12-17T16:35:42.497Z,0
2022-12-17T16:37:48.081Z,0
2022-12-17T16:38:51.096Z,0
2022-12-17T16:40:03.091Z,0
2022-12-17T16:41:07.205Z,0
2022-12-17T16:43:13.448Z,0
2022-12-17T16:45:18.813Z,0
2022-12-17T16:46:21.377Z,0
2022-12-17T16:48:27.026Z,0
2022-12-17T16:50:33.569Z,0
2022-12-17T16:52:39.311Z,0
2022-12-17T16:53:42.078Z,0
2022-12-17T16:55:49.258Z,0
2022-12-17T16:57:56.370Z,0
2022-12-17T16:58:59.067Z,0
2022-12-17T17:01:05.303Z,0
2022-12-17T17:03:14.014Z,0
2022-12-17T17:05:20.813Z,0
2022-12-17T17:06:25.791Z,0
2022-12-17T17:07:30.399Z,0
2022-12-17T17:08:33.439Z,0
2022-12-17T17:10:40.209Z,0
2022-12-17T17:11:53.741Z,0
2022-12-17T17:12:58.078Z,0
2022-12-17T17:14:01.426Z,0
2022-12-17T17:16:07.947Z,0
2022-12-17T17:18:13.883Z,0
2022-12-17T17:20:19.941Z,0
2022-12-17T17:21:22.945Z,0
2022-12-17T17:23:29.134Z,0
2022-12-17T17:26:00.254Z,0
2022-12-17T17:28:06.658Z,0
2022-12-17T17:29:09.716Z,0
2022-12-17T17:30:12.137Z,0
2022-12-17T17:31:15.710Z,0
2022-12-17T17:33:22.259Z,0
2022-12-17T17:34:25.369Z,0
2022-12-17T17:35:28.518Z,0
2022-12-17T17:36:31.561Z,0
2022-12-17T17:38:40.967Z,0
2022-12-17T17:40:48.946Z,0
2022-12-17T17:41:51.997Z,0
2022-12-17T17:43:59.770Z,0
2022-12-17T17:46:06.610Z,0
2022-12-17T17:48:12.970Z,0
2022-12-17T17:49:15.670Z,0
2022-12-17T17:52:12.888Z,0
2022-12-17T17:53:15.640Z,0
2022-12-17T17:54:19.471Z,0
2022-12-17T17:56:24.955Z,0
2022-12-17T17:58:31.244Z,0
2022-12-17T18:00:39.573Z,0
2022-12-17T18:01:45.215Z,0
2022-12-17T18:03:54.555Z,0
2022-12-17T18:06:00.771Z,0
2022-12-17T18:07:29.584Z,0
2022-12-17T18:08:32.320Z,0
2022-12-17T18:09:35.607Z,0
2022-12-17T18:11:42.764Z,0
2022-12-17T18:13:49.955Z,0
2022-12-17T18:15:20.080Z,0
2022-12-17T18:16:23.417Z,0
2022-12-17T18:18:28.897Z,0
2022-12-17T18:19:32.261Z,0
2022-12-17T18:21:38.271Z,0
2022-12-17T18:23:43.880Z,0
2022-12-17T18:25:49.463Z,0
2022-12-17T18:26:52.159Z,0
2022-12-17T18:28:58.897Z,0
2022-12-17T18:31:06.032Z,0
2022-12-17T18:33:12.436Z,0
2022-12-17T18:34:16.031Z,0
2022-12-17T18:36:21.291Z,0
2022-12-17T18:38:27.209Z,0
2022-12-17T18:40:35.357Z,0
2022-12-17T18:41:38.685Z,0
2022-12-17T18:43:44.638Z,0
2022-12-17T18:45:51.846Z,0
2022-12-17T18:48:02.350Z,0
2022-12-17T18:49:05.438Z,0
2022-12-17T18:51:10.719Z,0
2022-12-17T18:52:19.006Z,0
2022-12-17T18:53:21.229Z,0
2022-12-17T18:55:27.482Z,0
2022-12-17T18:57:04.092Z,0
2022-12-17T18:58:07.460Z,0
2022-12-17T18:59:09.594Z,0
2022-12-17T19:01:17.433Z,0
2022-12-17T19:03:24.373Z,0
2022-12-17T19:05:31.261Z,0
2022-12-17T19:06:33.732Z,0
2022-12-17T19:08:41.453Z,0
2022-12-17T19:10:47.561Z,0
2022-12-17T19:11:50.624Z,0
2022-12-17T19:12:53.622Z,0
2022-12-17T19:13:56.967Z,0
2022-12-17T19:16:03.885Z,0
2022-12-17T19:18:10.899Z,0
2022-12-17T19:19:14.377Z,0
2022-12-17T19:20:17.481Z,0
2022-12-17T19:21:20.805Z,0
2022-12-17T19:23:35.020Z,0
2022-12-17T19:25:40.952Z,0
2022-12-17T19:26:43.711Z,0
2022-12-17T19:28:51.011Z,0
2022-12-17T19:30:57.415Z,0
2022-12-17T19:33:05.505Z,0
2022-12-17T19:34:08.571Z,0
2022-12-17T19:36:13.687Z,0
2022-12-17T19:38:20.290Z,0
2022-12-17T19:40:26.205Z,0
2022-12-17T19:41:29.540Z,0
2022-12-17T19:42:39.232Z,0
2022-12-17T19:43:42.302Z,0
2022-12-17T19:45:49.135Z,0
2022-12-17T19:47:55.341Z,0
2022-12-17T19:48:59.733Z,0
2022-12-17T19:51:05.735Z,0
2022-12-17T19:53:14.009Z,0
2022-12-17T19:55:20.088Z,0
2022-12-17T19:56:23.144Z,0
2022-12-17T19:58:29.154Z,0
2022-12-17T20:00:35.115Z,0
2022-12-17T20:02:43.775Z,0
2022-12-17T20:03:47.177Z,0
2022-12-17T20:05:53.946Z,0
2022-12-17T20:07:59.302Z,0
2022-12-17T20:10:04.833Z,0
2022-12-17T20:11:09.533Z,0
2022-12-17T20:13:16.282Z,0
2022-12-17T20:15:22.590Z,0
2022-12-17T20:16:25.401Z,0
2022-12-17T20:18:32.157Z,0
2022-12-17T20:20:39.873Z,0
2022-12-17T20:22:46.372Z,0
2022-12-17T20:23:49.627Z,0
2022-12-17T20:25:55.245Z,0
2022-12-17T20:28:00.253Z,0
2022-12-17T20:30:05.633Z,0
2022-12-17T20:31:09.269Z,0
2022-12-17T20:33:16.488Z,0
2022-12-17T20:35:23.340Z,0
2022-12-17T20:37:31.693Z,0
2022-12-17T20:38:35.149Z,0
2022-12-17T20:40:43.516Z,0
2022-12-17T20:42:50.992Z,0
2022-12-17T20:44:59.126Z,0
2022-12-17T20:46:03.080Z,0
2022-12-17T20:48:10.098Z,0
2022-12-17T20:50:17.126Z,0
2022-12-17T20:52:24.353Z,0
2022-12-17T20:53:27.329Z,0
2022-12-17T20:55:34.102Z,0
2022-12-17T20:57:39.770Z,0
2022-12-17T20:59:46.391Z,0
2022-12-17T21:00:48.951Z,0
2022-12-17T21:01:58.660Z,0
2022-12-17T21:03:03.274Z,0
2022-12-17T21:05:09.077Z,0
2022-12-17T21:06:12.181Z,0
2022-12-17T21:07:15.804Z,0
2022-12-17T21:08:19.012Z,0
2022-12-17T21:10:24.891Z,0
2022-12-17T21:12:30.371Z,0
2022-12-17T21:13:32.794Z,0
2022-12-17T21:15:42.288Z,0
2022-12-17T21:17:49.191Z,0
2022-12-17T21:20:10.293Z,0
2022-12-17T21:21:16.495Z,0
2022-12-17T21:22:21.386Z,0
2022-12-17T21:23:28.158Z,0
2022-12-17T21:25:35.050Z,0
2022-12-17T21:26:40.718Z,0
2022-12-17T21:27:45.480Z,0
2022-12-17T21:28:49.269Z,0
2022-12-17T21:30:57.049Z,0
2022-12-17T21:33:06.357Z,0
2022-12-17T21:34:10.395Z,0
2022-12-17T21:36:17.496Z,0
2022-12-17T21:38:23.348Z,0
2022-12-17T21:40:30.449Z,0
2022-12-17T21:41:33.436Z,0
2022-12-17T21:43:40.050Z,0
2022-12-17T21:45:47.527Z,0
2022-12-17T21:47:55.348Z,0
2022-12-17T21:48:58.822Z,0
2022-12-17T21:51:05.484Z,0
2022-12-17T21:52:12.679Z,0
2022-12-17T21:53:17.729Z,0
2022-12-17T21:55:26.606Z,0
2022-12-17T21:56:30.471Z,0
2022-12-17T21:57:32.618Z,0
2022-12-17T21:58:37.529Z,0
2022-12-17T22:00:43.615Z,0
2022-12-17T22:01:47.839Z,0
2022-12-17T22:02:51.352Z,0
2022-12-17T22:03:56.628Z,0
2022-12-17T22:06:04.746Z,0
2022-12-17T22:07:36.095Z,0
2022-12-17T22:10:08.021Z,0
2022-12-17T22:11:57.205Z,0
2022-12-17T22:14:22.239Z,0
2022-12-17T22:15:50.170Z,0
2022-12-17T22:16:53.252Z,0
2022-12-17T22:19:04.339Z,0
2022-12-17T22:21:10.204Z,0
2022-12-17T22:22:12.703Z,0
2022-12-17T22:24:18.828Z,0
2022-12-17T22:26:26.285Z,0
2022-12-17T22:28:33.653Z,0
2022-12-17T22:29:36.914Z,0
2022-12-17T22:30:43.751Z,0
2022-12-17T22:31:51.835Z,0
2022-12-17T22:33:00.237Z,0
2022-12-17T22:44:59.017Z,0
2022-12-17T22:46:15.281Z,0
2022-12-17T22:47:18.555Z,0
2022-12-17T22:48:27.193Z,0
2022-12-17T22:49:31.606Z,0
2022-12-17T22:51:41.215Z,0
2022-12-17T22:52:49.647Z,0
2022-12-17T22:54:58.318Z,0
2022-12-17T22:57:38.908Z,0
2022-12-17T22:58:42.236Z,0
2022-12-17T22:59:45.937Z,0
2022-12-17T23:00:48.835Z,0
2022-12-17T23:02:56.874Z,0
2022-12-17T23:04:01.336Z,0
2022-12-17T23:05:03.868Z,0
2022-12-17T23:06:07.017Z,0
2022-12-17T23:08:14.085Z,0
2022-12-17T23:09:18.885Z,0
2022-12-17T23:10:23.355Z,0
2022-12-17T23:11:27.173Z,0
2022-12-17T23:13:35.479Z,0
2022-12-17T23:15:42.511Z,0
2022-12-17T23:16:46.399Z,0
2022-12-17T23:18:55.280Z,0
2022-12-17T23:21:02.035Z,0
2022-12-17T23:23:09.188Z,0
2022-12-17T23:24:12.129Z,0
2022-12-17T23:26:18.661Z,0
2022-12-17T23:28:25.059Z,0
2022-12-17T23:30:33.900Z,0
2022-12-17T23:31:38.084Z,0
2022-12-17T23:33:46.356Z,0
2022-12-17T23:35:52.004Z,0
2022-12-17T23:37:59.051Z,0
2022-12-17T23:39:02.919Z,0
2022-12-17T23:40:06.157Z,0
2022-12-17T23:41:09.758Z,0
2022-12-17T23:43:19.794Z,0
2022-12-17T23:44:21.939Z,0
2022-12-17T23:45:25.699Z,0
2022-12-17T23:46:29.172Z,0
2022-12-17T23:48:34.781Z,0
2022-12-17T23:50:41.346Z,0
2022-12-17T23:51:44.782Z,0
2022-12-17T23:53:50.411Z,0
2022-12-17T23:55:56.177Z,0
2022-12-17T23:58:02.582Z,0
2022-12-17T23:59:05.270Z,0
